sensor_id;sensor_type;location;lat;lon;timestamp;pressure;altitude;pressure_sealevel;temperature;humidity
61318;BME280;47201;40.428;-8.436;2023-03-23T00:00:14;100732.59;;;10.99;100.00
61318;BME280;47201;40.428;-8.436;2023-03-23T00:02:15;100730.84;;;10.93;100.00
61318;BME280;47201;40.428;-8.436;2023-03-23T00:04:16;100717.78;;;10.88;100.00
61318;BME280;47201;40.428;-8.436;2023-03-23T00:06:18;100714.31;;;10.80;100.00
61318;BME280;47201;40.428;-8.436;2023-03-23T00:08:19;100709.09;;;10.74;100.00
61318;BME280;47201;40.428;-8.436;2023-03-23T00:10:21;100711.72;;;10.68;100.00
61318;BME280;47201;40.428;-8.436;2023-03-23T00:12:22;100707.41;;;10.57;100.00
61318;BME280;47201;40.428;-8.436;2023-03-23T00:14:29;100710.03;;;10.57;100.00
61318;BME280;47201;40.428;-8.436;2023-03-23T00:16:41;100703.91;;;10.52;100.00
61318;BME280;47201;40.428;-8.436;2023-03-23T00:20:46;100702.16;;;10.34;100.00
61318;BME280;47201;40.428;-8.436;2023-03-23T00:22:49;100697.81;;;10.25;100.00
61318;BME280;47201;40.428;-8.436;2023-03-23T00:24:49;100692.59;;;10.30;100.00
61318;BME280;47201;40.428;-8.436;2023-03-23T00:26:53;100695.22;;;10.41;100.00
61318;BME280;47201;40.428;-8.436;2023-03-23T00:28:54;100693.47;;;10.52;100.00
61318;BME280;47201;40.428;-8.436;2023-03-23T00:31:04;100689.09;;;10.54;100.00
61318;BME280;47201;40.428;-8.436;2023-03-23T00:33:08;100689.97;;;10.48;100.00
61318;BME280;47201;40.428;-8.436;2023-03-23T00:35:27;100687.38;;;10.48;100.00
61318;BME280;47201;40.428;-8.436;2023-03-23T00:37:28;100682.16;;;10.56;100.00
61318;BME280;47201;40.428;-8.436;2023-03-23T00:39:47;100686.50;;;10.59;100.00
61318;BME280;47201;40.428;-8.436;2023-03-23T00:41:49;100683.00;;;10.54;100.00
61318;BME280;47201;40.428;-8.436;2023-03-23T00:44:08;100682.16;;;10.42;100.00
61318;BME280;47201;40.428;-8.436;2023-03-23T00:46:09;100681.28;;;10.31;100.00
61318;BME280;47201;40.428;-8.436;2023-03-23T00:48:29;100679.53;;;10.22;100.00
61318;BME280;47201;40.428;-8.436;2023-03-23T00:50:48;100668.19;;;10.14;100.00
61318;BME280;47201;40.428;-8.436;2023-03-23T00:52:48;100671.69;;;10.21;100.00
61318;BME280;47201;40.428;-8.436;2023-03-23T00:55:11;100669.09;;;10.21;100.00
61318;BME280;47201;40.428;-8.436;2023-03-23T00:57:11;100664.72;;;10.21;100.00
61318;BME280;47201;40.428;-8.436;2023-03-23T00:59:12;100662.13;;;10.24;100.00
61318;BME280;47201;40.428;-8.436;2023-03-23T01:01:13;100668.19;;;10.32;100.00
61318;BME280;47201;40.428;-8.436;2023-03-23T01:03:14;100656.03;;;10.38;100.00
61318;BME280;47201;40.428;-8.436;2023-03-23T01:05:18;100656.91;;;10.44;100.00
61318;BME280;47201;40.428;-8.436;2023-03-23T01:07:20;100655.97;;;10.55;100.00
61318;BME280;47201;40.428;-8.436;2023-03-23T01:09:20;100652.50;;;10.63;100.00
61318;BME280;47201;40.428;-8.436;2023-03-23T01:11:22;100652.44;;;10.76;100.00
61318;BME280;47201;40.428;-8.436;2023-03-23T01:13:22;100640.22;;;10.84;100.00
61318;BME280;47201;40.428;-8.436;2023-03-23T01:15:23;100638.44;;;10.92;100.00
61318;BME280;47201;40.428;-8.436;2023-03-23T01:17:23;100632.34;;;10.98;100.00
61318;BME280;47201;40.428;-8.436;2023-03-23T01:19:24;100628.75;;;11.15;100.00
61318;BME280;47201;40.428;-8.436;2023-03-23T01:21:26;100620.78;;;11.36;100.00
61318;BME280;47201;40.428;-8.436;2023-03-23T01:23:27;100618.91;;;11.55;100.00
61318;BME280;47201;40.428;-8.436;2023-03-23T01:25:28;100608.31;;;11.71;100.00
61318;BME280;47201;40.428;-8.436;2023-03-23T01:27:29;100607.28;;;11.92;100.00
61318;BME280;47201;40.428;-8.436;2023-03-23T01:29:29;100601.88;;;12.11;100.00
61318;BME280;47201;40.428;-8.436;2023-03-23T01:31:48;100594.81;;;12.22;100.00
61318;BME280;47201;40.428;-8.436;2023-03-23T01:34:07;100585.03;;;12.38;100.00
61318;BME280;47201;40.428;-8.436;2023-03-23T01:36:16;100578.81;;;12.45;100.00
61318;BME280;47201;40.428;-8.436;2023-03-23T01:38:17;100580.53;;;12.49;100.00
61318;BME280;47201;40.428;-8.436;2023-03-23T01:40:18;100588.44;;;12.46;100.00
61318;BME280;47201;40.428;-8.436;2023-03-23T01:42:37;100583.09;;;12.52;100.00
61318;BME280;47201;40.428;-8.436;2023-03-23T01:46:42;100585.78;;;12.48;100.00
61318;BME280;47201;40.428;-8.436;2023-03-23T01:48:43;100581.44;;;12.47;100.00
61318;BME280;47201;40.428;-8.436;2023-03-23T01:51:09;100577.91;;;12.49;100.00
61318;BME280;47201;40.428;-8.436;2023-03-23T01:53:12;100580.47;;;12.56;100.00
61318;BME280;47201;40.428;-8.436;2023-03-23T01:55:14;100575.19;;;12.57;100.00
61318;BME280;47201;40.428;-8.436;2023-03-23T01:57:16;100574.28;;;12.60;100.00
61318;BME280;47201;40.428;-8.436;2023-03-23T01:59:36;100563.81;;;12.58;100.00
61318;BME280;47201;40.428;-8.436;2023-03-23T02:01:52;100565.66;;;12.50;100.00
61318;BME280;47201;40.428;-8.436;2023-03-23T02:03:54;100565.78;;;12.39;100.00
61318;BME280;47201;40.428;-8.436;2023-03-23T02:06:15;100560.72;;;12.24;100.00
61318;BME280;47201;40.428;-8.436;2023-03-23T02:08:34;100563.44;;;12.14;100.00
61318;BME280;47201;40.428;-8.436;2023-03-23T02:10:54;100553.94;;;12.04;100.00
61318;BME280;47201;40.428;-8.436;2023-03-23T02:12:55;100553.09;;;11.96;100.00
61318;BME280;47201;40.428;-8.436;2023-03-23T02:14:56;100541.84;;;11.87;100.00
61318;BME280;47201;40.428;-8.436;2023-03-23T02:19:07;100543.59;;;11.85;100.00
61318;BME280;47201;40.428;-8.436;2023-03-23T02:21:19;100547.06;;;11.90;100.00
61318;BME280;47201;40.428;-8.436;2023-03-23T02:23:31;100543.50;;;11.96;100.00
61318;BME280;47201;40.428;-8.436;2023-03-23T02:35:10;100547.88;;;11.96;100.00
61318;BME280;47201;40.428;-8.436;2023-03-23T02:37:35;100553.13;;;11.99;100.00
61318;BME280;47201;40.428;-8.436;2023-03-23T02:39:49;100546.97;;;12.03;100.00
61318;BME280;47201;40.428;-8.436;2023-03-23T02:41:54;100549.59;;;12.00;100.00
61318;BME280;47201;40.428;-8.436;2023-03-23T02:43:56;100544.34;;;12.00;100.00
61318;BME280;47201;40.428;-8.436;2023-03-23T02:45:57;100549.59;;;12.00;100.00
61318;BME280;47201;40.428;-8.436;2023-03-23T02:47:59;100546.97;;;12.03;100.00
61318;BME280;47201;40.428;-8.436;2023-03-23T02:50:03;100547.78;;;12.06;100.00
61318;BME280;47201;40.428;-8.436;2023-03-23T02:52:07;100546.03;;;12.07;100.00
61318;BME280;47201;40.428;-8.436;2023-03-23T02:54:09;100537.97;;;12.26;100.00
61318;BME280;47201;40.428;-8.436;2023-03-23T02:56:11;100531.75;;;12.36;100.00
61318;BME280;47201;40.428;-8.436;2023-03-23T02:58:14;100528.19;;;12.42;100.00
61318;BME280;47201;40.428;-8.436;2023-03-23T03:00:17;100526.47;;;12.39;100.00
61318;BME280;47201;40.428;-8.436;2023-03-23T03:02:29;100520.41;;;12.32;100.00
61318;BME280;47201;40.428;-8.436;2023-03-23T03:04:33;100516.13;;;12.27;100.00
61318;BME280;47201;40.428;-8.436;2023-03-23T03:11:14;100513.59;;;12.20;100.00
61318;BME280;47201;40.428;-8.436;2023-03-23T03:13:22;100509.25;;;12.16;100.00
61318;BME280;47201;40.428;-8.436;2023-03-23T03:15:30;100506.63;;;12.16;100.00
61318;BME280;47201;40.428;-8.436;2023-03-23T03:17:56;100509.47;;;11.98;100.00
61318;BME280;47201;40.428;-8.436;2023-03-23T03:20:01;100505.97;;;11.94;100.00
61318;BME280;47201;40.428;-8.436;2023-03-23T03:22:11;100492.84;;;11.96;100.00
61318;BME280;47201;40.428;-8.436;2023-03-23T03:24:15;100495.44;;;12.02;100.00
61318;BME280;47201;40.428;-8.436;2023-03-23T03:26:20;100496.31;;;12.04;100.00
61318;BME280;47201;40.428;-8.436;2023-03-23T03:28:26;100493.63;;;12.07;100.00
61318;BME280;47201;40.428;-8.436;2023-03-23T03:30:47;100500.66;;;12.03;100.00
61318;BME280;47201;40.428;-8.436;2023-03-23T03:32:49;100503.34;;;11.99;100.00
61318;BME280;47201;40.428;-8.436;2023-03-23T03:34:55;100505.97;;;11.94;100.00
61318;BME280;47201;40.428;-8.436;2023-03-23T03:36:55;100502.50;;;11.92;100.00
61318;BME280;47201;40.428;-8.436;2023-03-23T03:39:00;100500.81;;;11.86;100.00
61318;BME280;47201;40.428;-8.436;2023-03-23T03:41:04;100497.38;;;11.81;100.00
61318;BME280;47201;40.428;-8.436;2023-03-23T03:43:04;100496.56;;;11.76;100.00
61318;BME280;47201;40.428;-8.436;2023-03-23T03:45:08;100485.25;;;11.71;100.00
61318;BME280;47201;40.428;-8.436;2023-03-23T03:47:09;100477.31;;;11.80;100.00
61318;BME280;47201;40.428;-8.436;2023-03-23T03:49:10;100485.16;;;11.83;100.00
61318;BME280;47201;40.428;-8.436;2023-03-23T03:51:13;100490.34;;;11.85;100.00
61318;BME280;47201;40.428;-8.436;2023-03-23T03:53:19;100480.81;;;11.78;100.00
61318;BME280;47201;40.428;-8.436;2023-03-23T03:55:19;100475.47;;;11.88;100.00
61318;BME280;47201;40.428;-8.436;2023-03-23T03:57:23;100476.31;;;11.89;100.00
61318;BME280;47201;40.428;-8.436;2023-03-23T03:59:38;100474.66;;;11.82;100.00
61318;BME280;47201;40.428;-8.436;2023-03-23T04:01:48;100476.41;;;11.83;100.00
61318;BME280;47201;40.428;-8.436;2023-03-23T04:04:12;100470.31;;;11.82;100.00
61318;BME280;47201;40.428;-8.436;2023-03-23T04:06:13;100470.31;;;11.82;100.00
61318;BME280;47201;40.428;-8.436;2023-03-23T04:08:35;100465.03;;;11.85;100.00
61318;BME280;47201;40.428;-8.436;2023-03-23T04:10:38;100461.56;;;11.83;100.00
61318;BME280;47201;40.428;-8.436;2023-03-23T04:12:58;100461.53;;;11.86;100.00
61318;BME280;47201;40.428;-8.436;2023-03-23T04:15:18;100460.63;;;11.89;100.00
61318;BME280;47201;40.428;-8.436;2023-03-23T04:17:37;100459.69;;;11.95;100.00
61318;BME280;47201;40.428;-8.436;2023-03-23T04:19:57;100459.63;;;12.04;100.00
61318;BME280;47201;40.428;-8.436;2023-03-23T04:21:59;100463.13;;;12.03;100.00
61318;BME280;47201;40.428;-8.436;2023-03-23T04:24:00;100457.81;;;12.09;100.00
61318;BME280;47201;40.428;-8.436;2023-03-23T04:26:04;100455.25;;;12.06;100.00
61318;BME280;47201;40.428;-8.436;2023-03-23T04:28:24;100455.16;;;12.11;100.00
61318;BME280;47201;40.428;-8.436;2023-03-23T04:30:44;100461.28;;;12.11;100.00
61318;BME280;47201;40.428;-8.436;2023-03-23T04:32:46;100472.72;;;12.04;100.00
61318;BME280;47201;40.428;-8.436;2023-03-23T04:35:10;100475.34;;;12.04;100.00
61318;BME280;47201;40.428;-8.436;2023-03-23T04:37:17;100471.84;;;12.03;100.00
61318;BME280;47201;40.428;-8.436;2023-03-23T04:39:19;100474.47;;;12.05;100.00
61318;BME280;47201;40.428;-8.436;2023-03-23T04:41:21;100484.91;;;12.06;100.00
61318;BME280;47201;40.428;-8.436;2023-03-23T04:43:41;100484.84;;;12.13;100.00
61318;BME280;47201;40.428;-8.436;2023-03-23T04:46:07;100490.03;;;12.17;100.00
61318;BME280;47201;40.428;-8.436;2023-03-23T04:48:13;100493.59;;;12.13;100.00
61318;BME280;47201;40.428;-8.436;2023-03-23T04:50:26;100486.56;;;12.14;100.00
61318;BME280;47201;40.428;-8.436;2023-03-23T04:52:27;100484.81;;;12.14;100.00
61318;BME280;47201;40.428;-8.436;2023-03-23T04:54:33;100484.84;;;12.13;100.00
61318;BME280;47201;40.428;-8.436;2023-03-23T04:56:35;100487.44;;;12.14;100.00
61318;BME280;47201;40.428;-8.436;2023-03-23T04:58:42;100481.31;;;12.15;100.00
61318;BME280;47201;40.428;-8.436;2023-03-23T05:01:05;100487.38;;;12.20;100.00
61318;BME280;47201;40.428;-8.436;2023-03-23T05:03:24;100484.75;;;12.22;100.00
61318;BME280;47201;40.428;-8.436;2023-03-23T05:05:27;100489.06;;;12.25;100.00
61318;BME280;47201;40.428;-8.436;2023-03-23T05:07:32;100485.56;;;12.26;100.00
61318;BME280;47201;40.428;-8.436;2023-03-23T05:09:35;100482.16;;;12.20;100.00
61318;BME280;47201;40.428;-8.436;2023-03-23T05:11:36;100493.47;;;12.22;100.00
61318;BME280;47201;40.428;-8.436;2023-03-23T05:13:37;100478.69;;;12.17;100.00
61318;BME280;47201;40.428;-8.436;2023-03-23T05:15:38;100476.03;;;12.18;100.00
61318;BME280;47201;40.428;-8.436;2023-03-23T05:17:40;100473.38;;;12.21;100.00
61318;BME280;47201;40.428;-8.436;2023-03-23T05:19:48;100471.69;;;12.17;100.00
61318;BME280;47201;40.428;-8.436;2023-03-23T05:22:10;100464.75;;;12.13;100.00
61318;BME280;47201;40.428;-8.436;2023-03-23T05:24:19;100465.66;;;12.09;100.00
61318;BME280;47201;40.428;-8.436;2023-03-23T05:26:21;100467.44;;;12.07;100.00
61318;BME280;47201;40.428;-8.436;2023-03-23T05:28:26;100460.47;;;12.04;100.00
61318;BME280;47201;40.428;-8.436;2023-03-23T05:30:30;100466.63;;;12.02;100.00
61318;BME280;47201;40.428;-8.436;2023-03-23T05:32:35;100452.72;;;11.94;100.00
61318;BME280;47201;40.428;-8.436;2023-03-23T05:34:53;100460.53;;;11.95;100.00
61318;BME280;47201;40.428;-8.436;2023-03-23T05:36:54;100459.69;;;11.95;100.00
61318;BME280;47201;40.428;-8.436;2023-03-23T05:39:05;100459.69;;;11.95;100.00
61318;BME280;47201;40.428;-8.436;2023-03-23T05:41:40;100461.44;;;11.93;100.00
61318;BME280;47201;40.428;-8.436;2023-03-23T05:43:41;100464.06;;;11.93;100.00
61318;BME280;47201;40.428;-8.436;2023-03-23T05:46:00;100466.69;;;11.94;100.00
61318;BME280;47201;40.428;-8.436;2023-03-23T05:48:20;100465.81;;;11.94;100.00
61318;BME280;47201;40.428;-8.436;2023-03-23T05:50:40;100475.41;;;11.95;100.00
61318;BME280;47201;40.428;-8.436;2023-03-23T05:53:00;100471.94;;;11.93;100.00
61318;BME280;47201;40.428;-8.436;2023-03-23T05:55:19;100464.94;;;11.91;100.00
61318;BME280;47201;40.428;-8.436;2023-03-23T05:57:27;100457.13;;;11.90;100.00
61318;BME280;47201;40.428;-8.436;2023-03-23T05:59:37;100463.22;;;11.89;100.00
61318;BME280;47201;40.428;-8.436;2023-03-23T06:01:42;100466.75;;;11.86;100.00
61318;BME280;47201;40.428;-8.436;2023-03-23T06:03:42;100473.75;;;11.86;100.00
61318;BME280;47201;40.428;-8.436;2023-03-23T06:05:50;100477.22;;;11.86;100.00
61318;BME280;47201;40.428;-8.436;2023-03-23T06:08:09;100477.22;;;11.88;100.00
61318;BME280;47201;40.428;-8.436;2023-03-23T06:10:10;100475.53;;;11.84;100.00
61318;BME280;47201;40.428;-8.436;2023-03-23T06:12:29;100469.41;;;11.82;100.00
61318;BME280;47201;40.428;-8.436;2023-03-23T06:14:43;100484.28;;;11.81;100.00
61318;BME280;47201;40.428;-8.436;2023-03-23T06:16:46;100479.03;;;11.81;100.00
61318;BME280;47201;40.428;-8.436;2023-03-23T06:18:48;100472.91;;;11.81;100.00
61318;BME280;47201;40.428;-8.436;2023-03-23T06:20:54;100472.94;;;11.79;100.00
61318;BME280;47201;40.428;-8.436;2023-03-23T06:23:14;100472.09;;;11.77;100.00
61318;BME280;47201;40.428;-8.436;2023-03-23T06:25:36;100460.78;;;11.75;100.00
61318;BME280;47201;40.428;-8.436;2023-03-23T06:27:36;100463.31;;;11.81;100.00
61318;BME280;47201;40.428;-8.436;2023-03-23T06:29:38;100470.38;;;11.76;100.00
61318;BME280;47201;40.428;-8.436;2023-03-23T06:31:40;100472.97;;;11.78;100.00
61318;BME280;47201;40.428;-8.436;2023-03-23T06:33:42;100480.84;;;11.76;100.00
61318;BME280;47201;40.428;-8.436;2023-03-23T06:35:58;100481.72;;;11.73;100.00
61318;BME280;47201;40.428;-8.436;2023-03-23T06:38:11;100485.19;;;11.77;100.00
61318;BME280;47201;40.428;-8.436;2023-03-23T06:40:23;100480.88;;;11.73;100.00
61318;BME280;47201;40.428;-8.436;2023-03-23T06:42:33;100481.75;;;11.72;100.00
61318;BME280;47201;40.428;-8.436;2023-03-23T06:44:54;100486.09;;;11.76;100.00
61318;BME280;47201;40.428;-8.436;2023-03-23T06:47:15;100486.97;;;11.73;100.00
61318;BME280;47201;40.428;-8.436;2023-03-23T06:49:20;100492.22;;;11.75;100.00
61318;BME280;47201;40.428;-8.436;2023-03-23T06:51:29;100499.19;;;11.76;100.00
61318;BME280;47201;40.428;-8.436;2023-03-23T06:53:30;100505.22;;;11.81;100.00
61318;BME280;47201;40.428;-8.436;2023-03-23T06:55:32;100503.47;;;11.83;100.00
61318;BME280;47201;40.428;-8.436;2023-03-23T06:57:33;100505.22;;;11.81;100.00
61318;BME280;47201;40.428;-8.436;2023-03-23T06:59:33;100501.69;;;11.85;100.00
61318;BME280;47201;40.428;-8.436;2023-03-23T07:01:35;100510.44;;;11.83;100.00
61318;BME280;47201;40.428;-8.436;2023-03-23T07:03:37;100513.97;;;11.77;100.00
61318;BME280;47201;40.428;-8.436;2023-03-23T07:05:38;100515.78;;;11.72;100.00
61318;BME280;47201;40.428;-8.436;2023-03-23T07:07:41;100519.34;;;11.62;100.00
61318;BME280;47201;40.428;-8.436;2023-03-23T07:09:51;100531.56;;;11.63;100.00
61318;BME280;47201;40.428;-8.436;2023-03-23T07:11:56;100536.78;;;11.66;100.00
61318;BME280;47201;40.428;-8.436;2023-03-23T07:14:04;100540.22;;;11.71;100.00
61318;BME280;47201;40.428;-8.436;2023-03-23T07:16:23;100540.19;;;11.79;100.00
61318;BME280;47201;40.428;-8.436;2023-03-23T07:18:44;100540.91;;;11.91;100.00
61318;BME280;47201;40.428;-8.436;2023-03-23T07:20:49;100553.16;;;11.91;100.00
61318;BME280;47201;40.428;-8.436;2023-03-23T07:22:53;100551.44;;;11.88;100.00
61318;BME280;47201;40.428;-8.436;2023-03-23T07:25:12;100542.75;;;11.85;100.00
61318;BME280;47201;40.428;-8.436;2023-03-23T07:27:22;100527.88;;;11.88;100.00
61318;BME280;47201;40.428;-8.436;2023-03-23T07:29:42;100510.38;;;11.90;100.00
61318;BME280;47201;40.428;-8.436;2023-03-23T07:32:06;100508.66;;;11.86;100.00
61318;BME280;47201;40.428;-8.436;2023-03-23T07:34:06;100517.34;;;11.91;100.00
61318;BME280;47201;40.428;-8.436;2023-03-23T07:36:25;100511.19;;;11.97;100.00
61318;BME280;47201;40.428;-8.436;2023-03-23T07:38:26;100505.91;;;12.05;100.00
61318;BME280;47201;40.428;-8.436;2023-03-23T07:40:28;100513.63;;;12.17;100.00
61318;BME280;47201;40.428;-8.436;2023-03-23T07:42:34;100514.41;;;12.26;100.00
61318;BME280;47201;40.428;-8.436;2023-03-23T07:44:35;100514.34;;;12.30;100.00
61318;BME280;47201;40.428;-8.436;2023-03-23T07:46:43;100516.00;;;12.37;100.00
61318;BME280;47201;40.428;-8.436;2023-03-23T07:48:47;100521.19;;;12.42;100.00
61318;BME280;47201;40.428;-8.436;2023-03-23T07:50:50;100513.28;;;12.45;100.00
61318;BME280;47201;40.428;-8.436;2023-03-23T07:52:51;100517.56;;;12.52;100.00
61318;BME280;47201;40.428;-8.436;2023-03-23T07:54:54;100519.28;;;12.57;100.00
61318;BME280;47201;40.428;-8.436;2023-03-23T07:57:23;100520.03;;;12.65;100.00
61318;BME280;47201;40.428;-8.436;2023-03-23T07:59:26;100544.41;;;12.73;100.00
61318;BME280;47201;40.428;-8.436;2023-03-23T08:01:28;100546.19;;;12.71;100.00
61318;BME280;47201;40.428;-8.436;2023-03-23T08:03:47;100526.94;;;12.72;100.00
61318;BME280;47201;40.428;-8.436;2023-03-23T08:06:07;100518.19;;;12.73;100.00
61318;BME280;47201;40.428;-8.436;2023-03-23T08:08:27;100529.38;;;12.84;100.00
61318;BME280;47201;40.428;-8.436;2023-03-23T08:10:27;100536.31;;;12.90;100.00
61318;BME280;47201;40.428;-8.436;2023-03-23T08:12:34;100528.38;;;12.95;100.00
61318;BME280;47201;40.428;-8.436;2023-03-23T08:14:52;100508.09;;;13.06;100.00
61318;BME280;47201;40.428;-8.436;2023-03-23T08:17:07;100515.75;;;13.18;100.00
61318;BME280;47201;40.428;-8.436;2023-03-23T08:19:23;100516.53;;;13.25;100.00
61318;BME280;47201;40.428;-8.436;2023-03-23T08:21:26;100515.56;;;13.32;100.00
61318;BME280;47201;40.428;-8.436;2023-03-23T08:23:46;100505.63;;;13.53;100.00
61318;BME280;47201;40.428;-8.436;2023-03-23T08:26:12;100499.38;;;13.62;100.00
61318;BME280;47201;40.428;-8.436;2023-03-23T08:28:29;100496.75;;;13.60;100.00
61318;BME280;47201;40.428;-8.436;2023-03-23T08:30:58;100496.03;;;13.51;100.00
61318;BME280;47201;40.428;-8.436;2023-03-23T08:33:08;100494.41;;;13.43;100.00
61318;BME280;47201;40.428;-8.436;2023-03-23T08:35:28;100500.63;;;13.39;100.00
61318;BME280;47201;40.428;-8.436;2023-03-23T08:37:40;100517.28;;;13.33;100.00
61318;BME280;47201;40.428;-8.436;2023-03-23T08:40:08;100502.41;;;13.36;100.00
61318;BME280;47201;40.428;-8.436;2023-03-23T08:42:45;100514.63;;;13.38;100.00
61318;BME280;47201;40.428;-8.436;2023-03-23T08:45:05;100550.44;;;13.42;100.00
61318;BME280;47201;40.428;-8.436;2023-03-23T08:47:27;100543.44;;;13.43;100.00
61318;BME280;47201;40.428;-8.436;2023-03-23T08:49:51;100554.69;;;13.51;100.00
61318;BME280;47201;40.428;-8.436;2023-03-23T08:52:20;100559.94;;;13.51;100.00
61318;BME280;47201;40.428;-8.436;2023-03-23T08:54:43;100563.47;;;13.48;100.00
61318;BME280;47201;40.428;-8.436;2023-03-23T08:57:04;100570.53;;;13.45;100.00
61318;BME280;47201;40.428;-8.436;2023-03-23T08:59:23;100576.75;;;13.39;100.00
61318;BME280;47201;40.428;-8.436;2023-03-23T09:01:36;100569.53;;;13.54;100.00
61318;BME280;47201;40.428;-8.436;2023-03-23T09:03:49;100561.41;;;13.68;100.00
61318;BME280;47201;40.428;-8.436;2023-03-23T09:06:09;100561.28;;;13.74;100.00
61318;BME280;47201;40.428;-8.436;2023-03-23T09:08:21;100556.00;;;13.77;100.00
61318;BME280;47201;40.428;-8.436;2023-03-23T09:10:22;100559.41;;;13.84;100.00
61318;BME280;47201;40.428;-8.436;2023-03-23T09:12:24;100554.06;;;13.88;100.00
61318;BME280;47201;40.428;-8.436;2023-03-23T09:14:25;100556.50;;;13.99;100.00
61318;BME280;47201;40.428;-8.436;2023-03-23T09:16:25;100551.22;;;14.01;100.00
61318;BME280;47201;40.428;-8.436;2023-03-23T09:18:26;100556.16;;;14.18;100.00
61318;BME280;47201;40.428;-8.436;2023-03-23T09:20:27;100550.34;;;14.46;100.00
61318;BME280;47201;40.428;-8.436;2023-03-23T09:22:49;100542.03;;;14.67;100.00
61318;BME280;47201;40.428;-8.436;2023-03-23T09:24:49;100533.09;;;14.76;100.00
61318;BME280;47201;40.428;-8.436;2023-03-23T09:27:10;100544.22;;;14.89;100.00
61318;BME280;47201;40.428;-8.436;2023-03-23T09:29:10;100548.28;;;15.04;100.00
61318;BME280;47201;40.428;-8.436;2023-03-23T09:31:12;100552.19;;;15.25;100.00
61318;BME280;47201;40.428;-8.436;2023-03-23T09:33:15;100549.16;;;15.42;100.00
61318;BME280;47201;40.428;-8.436;2023-03-23T09:35:16;100542.16;;;15.41;100.00
61318;BME280;47201;40.428;-8.436;2023-03-23T09:37:22;100549.97;;;15.44;100.00
61318;BME280;47201;40.428;-8.436;2023-03-23T09:39:23;100556.16;;;15.43;100.00
61318;BME280;47201;40.428;-8.436;2023-03-23T09:41:43;100563.22;;;15.41;100.00
61318;BME280;47201;40.428;-8.436;2023-03-23T09:46:14;100555.38;;;15.38;100.00
61318;BME280;47201;40.428;-8.436;2023-03-23T09:48:28;100560.53;;;15.43;100.00
61318;BME280;47201;40.428;-8.436;2023-03-23T09:50:30;100570.97;;;15.47;100.00
61318;BME280;47201;40.428;-8.436;2023-03-23T09:52:55;100584.09;;;15.49;100.00
61318;BME280;47201;40.428;-8.436;2023-03-23T09:54:54;100577.72;;;15.59;100.00
61318;BME280;47201;40.428;-8.436;2023-03-23T09:56:55;100569.81;;;15.59;100.00
61318;BME280;47201;40.428;-8.436;2023-03-23T09:59:02;100565.25;;;15.66;100.00
61318;BME280;47201;40.428;-8.436;2023-03-23T10:01:07;100571.69;;;15.90;100.00
61318;BME280;47201;40.428;-8.436;2023-03-23T10:03:19;100577.56;;;16.34;99.32
61318;BME280;47201;40.428;-8.436;2023-03-23T10:07:28;100579.47;;;17.49;90.07
61318;BME280;47201;40.428;-8.436;2023-03-23T10:09:29;100580.03;;;17.59;86.98
61318;BME280;47201;40.428;-8.436;2023-03-23T10:12:13;100584.34;;;17.62;87.62
61318;BME280;47201;40.428;-8.436;2023-03-23T10:15:57;100584.34;;;18.15;82.31
61318;BME280;47201;40.428;-8.436;2023-03-23T10:18:02;100587.38;;;18.30;81.63
61318;BME280;47201;40.428;-8.436;2023-03-23T10:22:38;100600.44;;;18.82;78.04
61318;BME280;47201;40.428;-8.436;2023-03-23T10:31:05;100623.97;;;20.04;72.80
61318;BME280;47201;40.428;-8.436;2023-03-23T10:33:11;100624.38;;;19.72;72.72
61318;BME280;47201;40.428;-8.436;2023-03-23T10:35:14;100613.94;;;19.45;73.25
61318;BME280;47201;40.428;-8.436;2023-03-23T10:37:25;100611.88;;;19.74;72.00
61318;BME280;47201;40.428;-8.436;2023-03-23T10:39:52;100626.56;;;20.05;69.64
61318;BME280;47201;40.428;-8.436;2023-03-23T10:41:55;100637.25;;;20.24;69.09
61318;BME280;47201;40.428;-8.436;2023-03-23T10:43:55;100636.63;;;20.59;68.17
61318;BME280;47201;40.428;-8.436;2023-03-23T10:45:57;100658.09;;;20.94;66.11
61318;BME280;47201;40.428;-8.436;2023-03-23T10:50:02;100664.63;;;20.04;68.73
61318;BME280;47201;40.428;-8.436;2023-03-23T10:54:27;100671.16;;;18.54;78.04
61318;BME280;47201;40.428;-8.436;2023-03-23T10:56:36;100656.16;;;18.30;79.50
61318;BME280;47201;40.428;-8.436;2023-03-23T10:58:38;100662.50;;;17.99;80.75
61318;BME280;47201;40.428;-8.436;2023-03-23T11:00:43;100674.50;;;18.09;81.55
61318;BME280;47201;40.428;-8.436;2023-03-23T11:02:56;100665.97;;;17.99;81.92
61318;BME280;47201;40.428;-8.436;2023-03-23T11:05:06;100667.41;;;17.81;83.74
61318;BME280;47201;40.428;-8.436;2023-03-23T11:07:10;100654.59;;;17.69;84.41
61318;BME280;47201;40.428;-8.436;2023-03-23T11:09:18;100649.31;;;17.40;86.18
61318;BME280;47201;40.428;-8.436;2023-03-23T11:11:20;100636.44;;;17.29;86.99
61318;BME280;47201;40.428;-8.436;2023-03-23T11:13:31;100637.66;;;17.18;88.62
61318;BME280;47201;40.428;-8.436;2023-03-23T11:15:34;100643.09;;;17.13;88.38
61318;BME280;47201;40.428;-8.436;2023-03-23T11:17:36;100637.00;;;17.11;89.21
61318;BME280;47201;40.428;-8.436;2023-03-23T11:19:37;100634.25;;;17.16;88.58
61318;BME280;47201;40.428;-8.436;2023-03-23T11:21:37;100618.34;;;17.17;88.77
61318;BME280;47201;40.428;-8.436;2023-03-23T11:23:42;100612.56;;;17.33;87.86
61318;BME280;47201;40.428;-8.436;2023-03-23T11:25:57;100618.09;;;17.25;88.27
61318;BME280;47201;40.428;-8.436;2023-03-23T11:27:57;100625.97;;;17.26;89.42
61318;BME280;47201;40.428;-8.436;2023-03-23T11:30:07;100616.94;;;17.34;88.39
61318;BME280;47201;40.428;-8.436;2023-03-23T11:32:10;100622.13;;;17.37;87.65
61318;BME280;47201;40.428;-8.436;2023-03-23T11:36:31;100622.59;;;17.50;87.48